Time;durP1;ratioP1;P1;durP2;ratioP2;P2;SDS_P1;SDS_P2;PMS_P1;PMS_P2;Temp;Humidity;BMP_temperature;BMP_pressure;BME280_temperature;BME280_humidity;BME280_pressure;Samples;Min_cycle;Max_cycle;Signal;HPM_P1;HPM_P2
2023/05/03 00:00:51;;;;;;;13.40;9.50;;;;;;;14.42;70.72;99658.27;223658;183;137339;-66
2023/05/03 00:05:54;;;;;;;12.60;9.10;;;;;;;14.46;70.51;99662.84;223685;183;143434;-64
2023/05/03 00:11:00;;;;;;;12.90;9.50;;;;;;;14.43;70.38;99663.20;223794;183;138263;-65
2023/05/03 00:16:03;;;;;;;13.80;9.90;;;;;;;14.37;70.52;99660.70;223766;183;138770;-65
2023/05/03 00:21:06;;;;;;;13.00;9.80;;;;;;;14.29;70.72;99655.91;223755;183;145482;-63
2023/05/03 00:26:09;;;;;;;11.70;9.10;;;;;;;14.23;70.93;99652.59;223669;183;138586;-65
2023/05/03 00:31:14;;;;;;;14.70;9.60;;;;;;;14.21;71.20;99652.20;223715;183;137807;-65
2023/05/03 00:36:17;;;;;;;14.40;10.70;;;;;;;14.26;71.45;99651.70;223659;183;145814;-67
2023/05/03 00:41:20;;;;;;;19.60;11.40;;;;;;;14.29;71.39;99652.55;223660;183;138210;-66
2023/05/03 00:46:23;;;;;;;13.50;10.50;;;;;;;14.29;71.30;99656.48;223659;183;139499;-66
2023/05/03 00:51:27;;;;;;;14.00;10.40;;;;;;;14.26;71.12;99655.59;223656;183;145224;-66
2023/05/03 00:56:31;;;;;;;15.00;11.20;;;;;;;14.26;71.04;99649.90;223666;183;138859;-66
2023/05/03 01:01:51;;;;;;;13.80;9.90;;;;;;;14.19;71.08;99649.45;223695;183;139572;-67
2023/05/03 01:07:19;;;;;;;13.10;9.80;;;;;;;14.17;71.09;99654.38;223703;184;146075;-67
2023/05/03 01:12:36;;;;;;;13.90;9.80;;;;;;;14.20;70.86;99657.41;223545;184;138411;-67
2023/05/03 01:17:47;;;;;;;13.80;9.70;;;;;;;14.20;70.87;99656.52;223599;183;137351;-64
2023/05/03 01:23:02;;;;;;;15.60;9.60;;;;;;;14.18;70.72;99654.51;223564;183;145973;-67
2023/05/03 01:28:06;;;;;;;13.30;9.10;;;;;;;14.11;70.55;99651.58;223630;183;138364;-64
2023/05/03 01:33:20;;;;;;;14.70;9.60;;;;;;;14.07;70.61;99651.54;223741;184;136741;-63
2023/05/03 01:38:24;;;;;;;14.90;9.20;;;;;;;14.00;70.74;99656.08;223674;183;147154;-67
2023/05/03 01:43:30;;;;;;;15.40;10.00;;;;;;;13.98;70.81;99657.66;223721;183;138461;-64
2023/05/03 01:48:33;;;;;;;15.80;10.10;;;;;;;14.00;70.89;99657.35;223623;183;137456;-66
2023/05/03 01:53:37;;;;;;;13.70;10.20;;;;;;;14.00;71.10;99658.40;223676;184;145372;-67
2023/05/03 01:58:41;;;;;;;14.10;11.30;;;;;;;14.02;71.27;99659.02;223574;184;138917;-67
2023/05/03 02:03:44;;;;;;;15.80;11.90;;;;;;;14.05;71.16;99658.60;223583;183;136956;-65
2023/05/03 02:08:47;;;;;;;16.20;12.00;;;;;;;14.07;71.07;99656.33;223633;184;145568;-68
2023/05/03 02:13:50;;;;;;;17.70;10.80;;;;;;;14.00;71.16;99658.23;223670;183;138120;-67
2023/05/03 02:18:58;;;;;;;18.10;10.60;;;;;;;13.96;71.15;99662.55;223638;184;138182;-66
2023/05/03 02:24:02;;;;;;;15.90;12.30;;;;;;;14.05;71.20;99664.34;223746;183;147330;-68
2023/05/03 02:29:06;;;;;;;17.60;12.30;;;;;;;14.04;70.95;99663.63;223662;184;139790;-68
2023/05/03 02:34:09;;;;;;;15.90;11.50;;;;;;;14.04;71.04;99664.23;223478;183;139720;-65
2023/05/03 02:39:12;;;;;;;16.90;12.90;;;;;;;13.96;71.01;99661.50;223644;183;145872;-65
2023/05/03 02:44:16;;;;;;;18.20;12.10;;;;;;;13.92;71.15;99664.42;223662;183;138852;-68
2023/05/03 02:49:19;;;;;;;18.50;12.70;;;;;;;13.91;71.18;99664.38;223582;183;137987;-66
2023/05/03 02:54:23;;;;;;;16.30;11.70;;;;;;;13.89;71.31;99666.42;223748;181;145423;-67
2023/05/03 02:59:27;;;;;;;18.60;12.40;;;;;;;13.84;71.50;99667.45;223698;181;138436;-64
2023/05/03 03:04:31;;;;;;;14.80;12.40;;;;;;;13.86;71.63;99668.73;223679;181;138397;-66
2023/05/03 03:09:35;;;;;;;17.10;12.00;;;;;;;13.89;71.57;99674.11;223833;181;145798;-67
2023/05/03 03:14:40;;;;;;;17.50;13.20;;;;;;;13.89;71.58;99671.58;223703;181;138950;-67
2023/05/03 03:19:44;;;;;;;;;;;;;;;13.85;71.51;99670.96;223809;181;137299;-64
2023/05/03 03:24:48;;;;;;;18.30;14.00;;;;;;;13.82;71.61;99671.02;223820;181;145410;-64
2023/05/03 03:29:51;;;;;;;17.00;13.70;;;;;;;13.80;71.77;99671.86;223764;181;138167;-65
2023/05/03 03:34:55;;;;;;;18.60;13.10;;;;;;;13.79;71.61;99671.88;223831;182;138437;-63
2023/05/03 03:40:02;;;;;;;16.10;12.70;;;;;;;13.83;71.56;99676.14;223803;181;145858;-64
2023/05/03 03:45:07;;;;;;;18.90;12.60;;;;;;;13.86;71.52;99672.14;223737;181;138900;-66
2023/05/03 03:50:11;;;;;;;19.20;13.50;;;;;;;13.88;71.50;99679.88;223812;181;136789;-66
2023/05/03 03:55:14;;;;;;;16.00;12.80;;;;;;;13.88;71.33;99677.76;223746;182;145672;-66
2023/05/03 04:00:18;;;;;;;17.20;12.90;;;;;;;13.88;71.17;99684.52;223716;181;138388;-64
2023/05/03 04:05:23;;;;;;;15.60;12.40;;;;;;;13.90;70.98;99682.62;223723;181;137528;-68
2023/05/03 04:10:27;;;;;;;18.30;12.40;;;;;;;13.87;71.12;99691.38;223798;181;145986;-66
2023/05/03 04:15:30;;;;;;;15.10;11.90;;;;;;;13.78;71.30;99694.45;223818;181;139201;-67
2023/05/03 04:20:35;;;;;;;17.30;12.00;;;;;;;13.73;71.52;99697.61;223785;181;137684;-66
2023/05/03 04:25:45;;;;;;;21.00;12.80;;;;;;;13.75;71.90;99698.22;223870;181;148747;-63
2023/05/03 04:30:50;;;;;;;18.60;13.30;;;;;;;13.80;71.94;99704.68;223818;181;138428;-64
2023/05/03 04:35:57;;;;;;;17.90;13.10;;;;;;;13.83;71.60;99707.85;223842;181;139189;-67
2023/05/03 04:41:01;;;;;;;18.70;13.20;;;;;;;13.87;71.61;99716.48;223822;181;145624;-67
2023/05/03 04:47:26;;;;;;;16.70;11.90;;;;;;;13.93;71.36;99718.63;219600;193;666269;-68
2023/05/03 04:52:29;;;;;;;17.70;12.60;;;;;;;13.90;71.40;99720.05;222199;183;136931;-64
2023/05/03 04:57:33;;;;;;;16.50;13.20;;;;;;;13.89;71.43;99727.44;223751;184;143734;-66
2023/05/03 05:02:36;;;;;;;16.10;12.80;;;;;;;13.89;71.45;99732.59;223632;183;138339;-67
2023/05/03 05:07:41;;;;;;;17.90;13.50;;;;;;;13.89;71.62;99737.05;223780;183;137045;-67
2023/05/03 05:12:45;;;;;;;18.30;13.40;;;;;;;13.88;71.67;99741.58;223784;183;143556;-66
2023/05/03 05:17:48;;;;;;;18.40;12.80;;;;;;;13.87;72.00;99748.25;223773;184;138375;-64
2023/05/03 05:22:53;;;;;;;17.70;12.40;;;;;;;13.87;72.06;99752.88;223727;183;136340;-65
2023/05/03 05:27:56;;;;;;;16.70;12.00;;;;;;;13.88;72.14;99753.54;223732;183;143397;-66
2023/05/03 05:33:00;;;;;;;16.20;11.90;;;;;;;13.93;72.08;99763.41;223619;184;138380;-65
2023/05/03 05:38:04;;;;;;;15.30;11.50;;;;;;;13.93;72.12;99765.16;223701;182;137352;-64
2023/05/03 05:43:08;;;;;;;14.20;11.10;;;;;;;13.91;72.16;99768.19;223738;182;145787;-67
2023/05/03 05:48:13;;;;;;;14.40;10.50;;;;;;;13.89;72.20;99764.35;223744;183;140034;-65
2023/05/03 05:53:17;;;;;;;13.50;10.40;;;;;;;13.86;71.96;99774.01;223634;183;137503;-65
2023/05/03 05:58:25;;;;;;;13.50;9.30;;;;;;;13.81;72.14;99777.38;223699;183;145639;-64
2023/05/03 06:03:30;;;;;;;10.30;8.80;;;;;;;13.82;72.24;99780.34;223531;183;138455;-68
2023/05/03 06:08:35;;;;;;;15.20;9.40;;;;;;;13.91;72.15;99780.97;223675;184;137392;-66
2023/05/03 06:13:40;;;;;;;12.40;8.50;;;;;;;13.93;72.15;99785.50;223702;183;146700;-67
2023/05/03 06:18:44;;;;;;;12.80;9.00;;;;;;;13.96;72.08;99797.11;223850;182;139194;-67
2023/05/03 06:23:47;;;;;;;10.10;8.80;;;;;;;13.95;72.14;99798.91;223732;182;139276;-68
2023/05/03 06:28:51;;;;;;;13.70;9.20;;;;;;;13.95;72.10;99800.02;223774;182;146067;-69
2023/05/03 06:33:55;;;;;;;10.00;8.00;;;;;;;13.90;72.06;99802.64;223766;182;138368;-69
2023/05/03 06:38:58;;;;;;;10.70;7.90;;;;;;;13.88;72.09;99809.89;223822;182;137114;-66
2023/05/03 06:44:03;;;;;;;11.60;8.50;;;;;;;13.91;72.06;99807.23;223777;181;145163;-67
2023/05/03 06:49:06;;;;;;;10.40;8.30;;;;;;;13.93;71.98;99809.23;223627;182;138464;-65
2023/05/03 06:54:09;;;;;;;9.60;8.60;;;;;;;13.95;72.00;99814.30;223656;182;137718;-68
2023/05/03 06:59:12;;;;;;;11.40;8.50;;;;;;;13.92;71.89;99820.54;223735;182;145467;-69
2023/05/03 07:04:15;;;;;;;10.20;8.10;;;;;;;13.88;72.12;99822.96;223571;182;139094;-66
2023/05/03 07:09:18;;;;;;;8.90;6.80;;;;;;;13.84;71.93;99821.58;223743;181;137306;-65
2023/05/03 07:14:33;;;;;;;9.20;6.80;;;;;;;13.83;71.73;99822.20;223725;182;145348;-66
2023/05/03 07:19:37;;;;;;;8.40;6.50;;;;;;;13.82;71.70;99821.88;223715;181;139167;-66
2023/05/03 07:24:40;;;;;;;7.40;5.90;;;;;;;13.83;71.80;99823.21;223745;182;136536;-69
2023/05/03 07:29:43;;;;;;;10.10;6.50;;;;;;;13.82;71.62;99826.85;223703;181;145304;-67
2023/05/03 07:34:46;;;;;;;8.60;6.30;;;;;;;13.78;71.71;99829.96;223734;182;138423;-69
2023/05/03 07:39:49;;;;;;;10.50;6.30;;;;;;;13.79;72.02;99837.41;223789;182;136398;-66
2023/05/03 07:44:54;;;;;;;7.00;5.70;;;;;;;13.80;72.24;99839.14;223737;181;145835;-67
2023/05/03 07:49:57;;;;;;;7.90;5.90;;;;;;;13.86;72.25;99846.23;223686;182;138514;-68
2023/05/03 07:55:02;;;;;;;8.70;6.30;;;;;;;13.95;72.34;99849.46;223739;182;137237;-68
2023/05/03 08:00:09;;;;;;;9.80;6.80;;;;;;;14.05;72.59;99850.98;223741;181;145284;-69
2023/05/03 08:05:16;;;;;;;9.30;6.90;;;;;;;14.14;72.51;99856.79;223765;182;138118;-66
2023/05/03 08:10:20;;;;;;;10.30;7.50;;;;;;;14.23;72.25;99862.27;223762;182;137354;-66
2023/05/03 08:15:23;;;;;;;12.00;7.80;;;;;;;14.28;72.40;99856.61;223854;181;145452;-66
2023/05/03 08:20:26;;;;;;;8.60;7.10;;;;;;;14.30;72.31;99860.60;223762;182;138407;-67
2023/05/03 08:25:36;;;;;;;10.30;8.30;;;;;;;14.36;72.28;99861.66;223742;181;137770;-68
2023/05/03 08:30:39;;;;;;;9.90;7.70;;;;;;;14.47;72.13;99861.30;223738;181;145186;-67
2023/05/03 08:35:42;;;;;;;12.20;8.80;;;;;;;14.56;72.38;99866.62;223768;182;141579;-65
2023/05/03 08:40:49;;;;;;;13.90;8.40;;;;;;;14.62;72.25;99866.23;223852;182;136534;-67
2023/05/03 08:45:53;;;;;;;11.30;8.50;;;;;;;14.65;72.10;99872.64;223737;182;145466;-68
2023/05/03 08:50:57;;;;;;;12.50;8.80;;;;;;;14.71;71.97;99877.13;223703;182;138778;-66
2023/05/03 08:56:05;;;;;;;10.70;7.90;;;;;;;14.77;71.56;99871.86;223865;182;137303;-67
2023/05/03 09:01:09;;;;;;;10.00;8.10;;;;;;;14.81;71.60;99877.27;223732;182;146048;-65
2023/05/03 09:06:26;;;;;;;9.00;7.70;;;;;;;14.96;71.66;99875.80;223826;182;138511;-67
2023/05/03 09:11:31;;;;;;;10.20;7.90;;;;;;;15.13;71.39;99872.14;223729;182;137321;-67
2023/05/03 09:16:40;;;;;;;10.40;8.10;;;;;;;15.23;70.53;99872.57;223802;182;145266;-67
2023/05/03 09:21:45;;;;;;;11.20;7.90;;;;;;;15.29;70.63;99872.81;223772;181;139233;-67
2023/05/03 09:26:51;;;;;;;9.00;8.00;;;;;;;15.31;70.04;99877.33;223856;183;137024;-67
2023/05/03 09:32:02;;;;;;;9.90;7.10;;;;;;;15.28;70.02;99881.48;223822;182;145748;-68
2023/05/03 09:37:05;;;;;;;9.90;7.10;;;;;;;15.21;69.69;99883.02;223712;182;138848;-66
2023/05/03 09:42:18;;;;;;;8.60;7.50;;;;;;;15.16;69.46;99885.68;223830;182;138287;-69
2023/05/03 09:47:24;;;;;;;7.60;6.60;;;;;;;15.11;69.56;99885.63;223794;181;146086;-68
2023/05/03 09:52:28;;;;;;;14.90;7.10;;;;;;;15.05;69.46;99889.47;223707;181;138972;-67
2023/05/03 09:57:31;;;;;;;12.70;8.60;;;;;;;15.04;69.63;99890.64;223720;181;137075;-67
2023/05/03 10:02:35;;;;;;;9.30;7.60;;;;;;;15.03;69.89;99887.13;223792;181;146280;-69
2023/05/03 10:07:41;;;;;;;9.60;6.70;;;;;;;14.97;69.64;99887.52;223735;181;140257;-69
2023/05/03 10:12:46;;;;;;;8.40;6.30;;;;;;;14.87;69.53;99890.14;223762;181;136483;-67
2023/05/03 10:17:53;;;;;;;7.90;5.70;;;;;;;14.77;69.13;99900.06;223735;181;145270;-68
2023/05/03 10:23:05;;;;;;;8.90;5.10;;;;;;;14.67;69.16;99896.95;223789;181;138456;-66
2023/05/03 10:28:08;;;;;;;6.60;4.80;;;;;;;14.62;68.86;99891.21;223948;181;137393;-64
2023/05/03 10:33:11;;;;;;;6.80;4.90;;;;;;;14.58;68.65;99892.94;223791;181;145491;-66
2023/05/03 10:38:16;;;;;;;6.80;4.80;;;;;;;14.57;68.71;99892.08;223705;181;138407;-66
2023/05/03 10:43:30;;;;;;;7.20;5.20;;;;;;;14.59;68.64;99894.27;223718;181;136908;-66
2023/05/03 10:48:34;;;;;;;9.00;6.20;;;;;;;14.53;69.12;99893.11;223826;181;145400;-65
2023/05/03 10:53:41;;;;;;;9.50;7.20;;;;;;;14.49;69.57;99895.49;223818;181;138230;-67
2023/05/03 10:58:47;;;;;;;8.20;7.00;;;;;;;14.47;69.55;99896.48;223789;181;137653;-66
2023/05/03 11:04:11;;;;;;;8.30;7.00;;;;;;;14.48;69.81;99897.10;223830;181;145457;-66
2023/05/03 11:09:15;;;;;;;10.00;7.70;;;;;;;14.48;69.86;99903.02;223683;182;139003;-65
2023/05/03 11:14:18;;;;;;;12.20;8.70;;;;;;;14.46;69.90;99900.48;223750;181;137211;-69
2023/05/03 11:19:21;;;;;;;9.00;7.40;;;;;;;14.37;69.94;99905.27;223690;181;145938;-69
2023/05/03 11:24:26;;;;;;;9.70;7.80;;;;;;;14.30;69.79;99906.29;223609;181;138740;-68
2023/05/03 11:29:30;;;;;;;11.90;8.70;;;;;;;14.27;70.18;99907.91;223795;181;137431;-65
2023/05/03 11:34:34;;;;;;;10.70;8.20;;;;;;;14.25;70.82;99908.55;223734;181;145434;-64
2023/05/03 11:39:37;;;;;;;11.70;8.50;;;;;;;14.33;70.60;99905.92;223749;181;138554;-69
2023/05/03 11:44:41;;;;;;;11.50;8.60;;;;;;;14.43;70.31;99903.49;223678;181;139516;-69
2023/05/03 11:49:53;;;;;;;12.10;8.90;;;;;;;14.51;70.39;99905.38;223713;181;146175;-67
2023/05/03 11:54:56;;;;;;;11.70;8.60;;;;;;;14.51;69.95;99904.46;223682;181;138872;-66
2023/05/03 12:00:21;;;;;;;11.10;9.20;;;;;;;14.46;70.10;99908.69;223734;181;137427;-68
2023/05/03 12:05:26;;;;;;;12.40;9.60;;;;;;;14.41;70.18;99904.52;223645;181;145814;-67
2023/05/03 12:10:32;;;;;;;10.80;8.40;;;;;;;14.36;70.58;99904.66;223695;181;138982;-69
2023/05/03 12:15:39;;;;;;;10.80;8.20;;;;;;;14.37;70.88;99901.23;223708;181;137703;-67
2023/05/03 12:20:43;;;;;;;11.60;8.90;;;;;;;14.40;71.02;99900.84;223704;181;145226;-68
2023/05/03 12:26:06;;;;;;;9.90;7.10;;;;;;;14.44;70.68;99902.52;223634;181;138936;-67
2023/05/03 12:31:11;;;;;;;;;;;;;;;14.38;69.68;99904.50;223720;181;137775;-66
2023/05/03 12:36:15;;;;;;;8.10;6.60;;;;;;;14.25;69.25;99904.48;223732;181;146194;-66
2023/05/03 12:41:23;;;;;;;11.30;6.40;;;;;;;14.13;69.42;99901.27;223810;181;140335;-66
2023/05/03 12:46:48;;;;;;;9.00;6.70;;;;;;;14.08;69.76;99892.91;223765;181;137890;-66
2023/05/03 12:51:54;;;;;;;8.90;6.30;;;;;;;14.05;69.78;99891.79;223703;181;146284;-68
2023/05/03 12:57:20;;;;;;;7.80;5.50;;;;;;;14.07;70.06;99889.37;223789;181;138925;-66
2023/05/03 13:02:26;;;;;;;8.50;6.30;;;;;;;14.11;69.80;99883.40;223719;181;137101;-69
2023/05/03 13:07:32;;;;;;;9.60;6.40;;;;;;;14.15;69.87;99886.87;223722;181;145441;-67
2023/05/03 13:12:44;;;;;;;8.10;6.60;;;;;;;14.14;69.79;99886.38;223744;181;138415;-68
2023/05/03 13:17:47;;;;;;;11.10;6.90;;;;;;;14.14;69.94;99883.05;223808;181;136758;-70
2023/05/03 13:22:53;;;;;;;9.10;6.30;;;;;;;14.12;70.00;99885.13;223700;181;148225;-69
2023/05/03 13:28:00;;;;;;;10.80;7.40;;;;;;;14.06;70.50;99886.77;223697;181;138435;-66
2023/05/03 13:33:04;;;;;;;9.80;7.60;;;;;;;14.03;70.18;99889.80;223719;181;136847;-68
2023/05/03 13:38:08;;;;;;;12.50;7.40;;;;;;;14.02;69.71;99886.79;223752;181;147865;-69
2023/05/03 13:43:11;;;;;;;10.00;8.30;;;;;;;14.02;70.04;99882.88;223568;181;140471;-69
2023/05/03 13:48:14;;;;;;;9.50;7.70;;;;;;;14.04;69.59;99878.68;223804;181;137781;-69
2023/05/03 13:53:21;;;;;;;9.60;7.70;;;;;;;14.03;69.04;99875.16;223709;181;147178;-69
2023/05/03 13:58:24;;;;;;;9.40;7.00;;;;;;;13.98;68.48;99873.52;223646;181;140142;-70
2023/05/03 14:03:27;;;;;;;10.00;7.90;;;;;;;13.92;68.06;99868.00;223662;181;137097;-68
2023/05/03 14:08:30;;;;;;;11.90;7.70;;;;;;;13.90;68.13;99868.29;223715;181;146988;-68
2023/05/03 14:13:33;;;;;;;10.00;6.60;;;;;;;13.90;68.11;99870.60;223725;181;138919;-67
2023/05/03 14:18:57;;;;;;;13.20;6.80;;;;;;;13.87;68.61;99875.06;223810;181;136668;-67
2023/05/03 14:24:01;;;;;;;12.00;6.40;;;;;;;13.92;68.13;99875.69;223840;181;148832;-70
2023/05/03 14:29:04;;;;;;;15.20;6.90;;;;;;;13.97;67.94;99876.08;223756;181;139533;-69
2023/05/03 14:34:07;;;;;;;11.30;7.20;;;;;;;14.00;68.06;99877.15;223838;181;139217;-67
2023/05/03 14:39:13;;;;;;;11.60;7.70;;;;;;;14.03;67.86;99876.63;223865;181;146948;-67
2023/05/03 14:44:21;;;;;;;8.10;6.70;;;;;;;14.01;67.92;99881.92;223591;181;138333;-68
2023/05/03 14:49:24;;;;;;;10.40;6.70;;;;;;;13.97;68.05;99881.95;223797;181;136735;-67
2023/05/03 14:54:29;;;;;;;12.10;6.70;;;;;;;13.92;67.94;99885.45;223693;181;147293;-70
2023/05/03 14:59:32;;;;;;;13.30;6.60;;;;;;;13.88;68.55;99886.96;223733;181;138757;-68
2023/05/03 15:04:38;;;;;;;11.20;7.10;;;;;;;13.86;68.96;99890.13;223698;181;137501;-65
2023/05/03 15:09:43;;;;;;;11.50;6.30;;;;;;;13.86;69.09;99889.96;223688;181;147837;-68
2023/05/03 15:14:47;;;;;;;9.10;6.90;;;;;;;13.89;69.08;99887.11;223646;181;139884;-65
2023/05/03 15:19:51;;;;;;;11.30;6.60;;;;;;;13.91;69.28;99891.23;223798;180;138513;-66
2023/05/03 15:24:54;;;;;;;10.40;7.40;;;;;;;13.93;69.39;99887.36;223707;181;146940;-68
2023/05/03 15:29:57;;;;;;;9.00;6.80;;;;;;;13.92;69.38;99888.48;223758;181;139044;-70
2023/05/03 15:35:00;;;;;;;9.70;7.00;;;;;;;13.91;69.38;99895.13;223572;181;137785;-68
2023/05/03 15:40:04;;;;;;;11.40;6.40;;;;;;;13.89;69.18;99892.81;223670;181;147935;-68
2023/05/03 15:45:09;;;;;;;10.00;6.20;;;;;;;13.88;69.08;99895.53;223675;180;138741;-67
2023/05/03 15:50:12;;;;;;;11.90;6.50;;;;;;;13.91;69.16;99892.48;223701;181;138942;-68
2023/05/03 15:55:17;;;;;;;10.40;6.90;;;;;;;13.95;69.20;99884.01;223755;181;149102;-67
2023/05/03 16:00:21;;;;;;;335.00;255.60;;;;;;;13.99;69.25;99880.77;223720;181;139066;-67
2023/05/03 16:05:26;;;;;;;11.80;8.00;;;;;;;14.13;68.66;99878.81;223645;181;137353;-62
2023/05/03 16:10:29;;;;;;;12.10;7.40;;;;;;;14.09;68.49;99872.47;223752;180;147804;-68
2023/05/03 16:15:32;;;;;;;10.00;6.40;;;;;;;14.02;68.60;99868.27;223612;181;138459;-64
2023/05/03 16:20:35;;;;;;;15.00;7.50;;;;;;;13.96;68.52;99870.96;223670;181;137559;-65
2023/05/03 16:25:39;;;;;;;10.60;5.90;;;;;;;13.89;68.68;99871.54;223718;180;147664;-66
2023/05/03 16:30:43;;;;;;;14.10;6.10;;;;;;;13.89;69.17;99873.19;223656;181;140443;-67
2023/05/03 16:35:46;;;;;;;11.70;7.30;;;;;;;13.93;69.12;99872.91;223721;181;138322;-67
2023/05/03 16:40:52;;;;;;;10.40;7.00;;;;;;;13.98;68.61;99879.77;223789;181;146931;-64
2023/05/03 16:45:59;;;;;;;14.00;7.10;;;;;;;13.97;68.50;99877.86;223605;181;138647;-65
2023/05/03 16:51:03;;;;;;;15.10;7.40;;;;;;;13.93;68.25;99877.37;223711;181;141804;-67
2023/05/03 16:56:07;;;;;;;18.30;11.40;;;;;;;13.94;67.91;99883.06;223809;181;147135;-66
2023/05/03 17:01:12;;;;;;;19.50;12.80;;;;;;;13.90;68.39;99889.72;223656;181;138317;-68
2023/05/03 17:06:17;;;;;;;39.90;31.20;;;;;;;13.93;69.36;99887.94;223762;181;137380;-63
2023/05/03 17:11:21;;;;;;;15.20;11.50;;;;;;;13.99;69.10;99885.59;223782;181;147144;-64
2023/05/03 17:16:25;;;;;;;264.40;212.20;;;;;;;14.00;68.82;99894.64;223746;181;138369;-67
2023/05/03 17:21:28;;;;;;;23.50;17.10;;;;;;;14.09;69.09;99895.52;223722;181;137970;-63
2023/05/03 17:26:32;;;;;;;15.90;11.70;;;;;;;14.11;68.94;99896.63;223709;181;147578;-66
2023/05/03 17:31:35;;;;;;;16.40;11.30;;;;;;;14.07;68.76;99899.15;223695;181;139068;-63
2023/05/03 17:36:39;;;;;;;15.00;12.10;;;;;;;13.98;68.87;99899.58;223622;181;138556;-66
2023/05/03 17:41:42;;;;;;;14.00;11.30;;;;;;;13.89;69.11;99906.14;223669;181;147788;-66
2023/05/03 17:46:45;;;;;;;15.00;11.60;;;;;;;13.81;69.43;99906.70;223733;181;138353;-65
2023/05/03 17:51:48;;;;;;;14.00;11.20;;;;;;;13.71;69.80;99904.42;223757;180;138172;-62
2023/05/03 17:56:51;;;;;;;14.20;10.70;;;;;;;13.67;69.97;99909.52;223702;181;147807;-64
2023/05/03 18:01:55;;;;;;;14.40;10.50;;;;;;;13.68;70.03;99910.33;223738;181;138795;-63
2023/05/03 18:06:58;;;;;;;15.30;11.20;;;;;;;13.73;70.04;99911.45;223704;181;138645;-65
2023/05/03 18:12:02;;;;;;;27.90;22.10;;;;;;;13.75;70.21;99911.71;223763;181;147392;-64
2023/05/03 18:17:06;;;;;;;42.60;34.00;;;;;;;13.79;70.11;99912.72;223598;181;139495;-66
2023/05/03 18:22:11;;;;;;;15.50;12.10;;;;;;;13.77;70.08;99915.30;223755;181;138950;-65
2023/05/03 18:27:14;;;;;;;16.20;12.10;;;;;;;13.72;69.88;99917.06;223784;181;147287;-70
2023/05/03 18:32:17;;;;;;;13.80;11.10;;;;;;;13.67;69.97;99918.57;223710;181;138145;-66
2023/05/03 18:37:20;;;;;;;14.90;10.40;;;;;;;13.64;69.91;99920.56;223756;177;137939;-65
2023/05/03 18:42:26;;;;;;;55.50;44.50;;;;;;;13.65;70.11;99919.80;223725;181;147154;-71
2023/05/03 18:47:29;;;;;;;17.10;13.90;;;;;;;13.66;70.26;99922.54;223775;181;138205;-72
2023/05/03 18:52:32;;;;;;;16.30;11.70;;;;;;;13.69;69.95;99919.91;223732;181;138358;-71
2023/05/03 18:57:36;;;;;;;15.50;11.60;;;;;;;13.67;69.85;99920.73;223712;181;147523;-69
2023/05/03 19:02:40;;;;;;;14.10;11.50;;;;;;;13.66;69.68;99928.65;223755;181;138458;-70
2023/05/03 19:07:47;;;;;;;14.10;11.60;;;;;;;13.55;69.74;99932.73;223738;181;137940;-72
2023/05/03 19:12:52;;;;;;;13.60;10.70;;;;;;;13.48;69.89;99928.27;223772;181;146727;-71
2023/05/03 19:17:55;;;;;;;18.60;12.50;;;;;;;13.48;69.88;99926.34;223701;181;138378;-69
2023/05/03 19:22:58;;;;;;;17.70;12.40;;;;;;;13.47;70.11;99923.67;223775;181;138182;-70
2023/05/03 19:28:04;;;;;;;16.00;11.50;;;;;;;13.47;70.33;99925.99;223812;181;148450;-73
2023/05/03 19:33:07;;;;;;;18.00;11.50;;;;;;;13.46;70.64;99928.39;223732;181;138556;-70
2023/05/03 19:38:10;;;;;;;13.00;10.60;;;;;;;13.41;70.98;99927.24;223809;181;138373;-69
2023/05/03 19:43:13;;;;;;;13.90;11.90;;;;;;;13.37;71.21;99927.36;223818;180;146882;-69
2023/05/03 19:48:17;;;;;;;15.70;10.20;;;;;;;13.34;71.38;99920.38;223791;180;138452;-66
2023/05/03 19:53:20;;;;;;;12.90;10.10;;;;;;;13.32;71.61;99921.96;223750;181;137437;-66
2023/05/03 19:58:24;;;;;;;14.60;10.50;;;;;;;13.33;71.67;99919.40;223736;180;146767;-67
2023/05/03 20:03:27;;;;;;;15.10;11.30;;;;;;;13.39;71.55;99921.54;223786;181;138182;-65
2023/05/03 20:08:31;;;;;;;14.70;11.50;;;;;;;13.46;71.64;99921.63;223843;181;136985;-66
2023/05/03 20:13:34;;;;;;;13.90;10.70;;;;;;;13.42;71.55;99916.85;223805;181;147357;-66
2023/05/03 20:18:37;;;;;;;14.60;10.70;;;;;;;13.37;71.46;99916.30;223709;181;139513;-66
2023/05/03 20:25:32;;;;;;;16.20;10.60;;;;;;;13.39;71.40;99911.19;222018;192;666426;-71
2023/05/03 20:30:35;;;;;;;13.30;10.20;;;;;;;13.35;71.57;99912.30;223717;183;137175;-69
2023/05/03 20:35:38;;;;;;;13.20;10.80;;;;;;;13.37;71.49;99911.30;223740;184;143457;-66
2023/05/03 20:40:41;;;;;;;14.20;10.50;;;;;;;13.38;71.51;99914.80;223716;183;138983;-71
2023/05/03 20:45:45;;;;;;;16.20;11.40;;;;;;;13.38;71.51;99916.25;223678;183;137049;-72
2023/05/03 20:50:48;;;;;;;14.60;10.60;;;;;;;13.34;71.53;99916.30;223804;182;143382;-67
2023/05/03 20:55:55;;;;;;;14.70;11.40;;;;;;;13.29;71.56;99920.36;223870;182;139970;-72
2023/05/03 21:01:02;;;;;;;13.20;10.80;;;;;;;13.24;71.82;99917.95;224381;179;136962;-66
2023/05/03 21:06:07;;;;;;;15.30;10.80;;;;;;;13.22;71.96;99918.73;224685;179;143886;-67
2023/05/03 21:11:10;;;;;;;20.40;12.40;;;;;;;13.26;72.15;99918.71;224504;179;138383;-70
2023/05/03 21:16:13;;;;;;;17.60;13.30;;;;;;;13.29;72.16;99915.70;224333;179;137171;-68
2023/05/03 21:21:16;;;;;;;19.30;14.90;;;;;;;13.29;72.10;99908.40;224229;179;145513;-68
2023/05/03 21:26:20;;;;;;;19.00;15.30;;;;;;;13.27;72.24;99907.79;224002;180;139055;-69
2023/05/03 21:31:23;;;;;;;18.60;15.70;;;;;;;13.27;72.30;99905.52;224004;179;136509;-67
2023/05/03 21:36:26;;;;;;;18.20;15.30;;;;;;;13.20;72.30;99899.81;224077;180;145689;-65
2023/05/03 21:41:29;;;;;;;20.00;15.00;;;;;;;13.17;72.50;99899.27;223995;180;138413;-67
2023/05/03 21:46:32;;;;;;;20.30;16.00;;;;;;;13.20;72.54;99901.77;224124;180;137453;-67
2023/05/03 21:51:47;;;;;;;19.30;16.50;;;;;;;13.23;72.46;99905.50;224040;179;146158;-68
2023/05/03 21:56:53;;;;;;;21.50;17.20;;;;;;;13.21;72.44;99905.27;224066;179;138298;-68
2023/05/03 22:01:56;;;;;;;19.40;15.70;;;;;;;13.18;72.43;99905.27;224054;180;137770;-68
2023/05/03 22:06:59;;;;;;;23.10;18.30;;;;;;;13.14;72.50;99906.55;223937;180;146160;-66
2023/05/03 22:12:02;;;;;;;17.40;15.20;;;;;;;13.08;72.62;99907.12;224001;180;138652;-68
2023/05/03 22:17:25;;;;;;;20.90;17.10;;;;;;;13.08;72.72;99908.55;223956;180;138046;-69
2023/05/03 22:22:28;;;;;;;21.30;17.10;;;;;;;13.10;72.66;99905.90;224069;180;145309;-69
2023/05/03 22:27:31;;;;;;;20.70;17.60;;;;;;;13.13;72.73;99900.19;223969;180;138433;-71
2023/05/03 22:32:34;;;;;;;25.10;18.80;;;;;;;13.12;72.59;99897.05;224064;180;137241;-69
2023/05/03 22:37:38;;;;;;;21.70;18.90;;;;;;;13.08;72.47;99895.52;223982;179;145863;-67
2023/05/03 22:42:44;;;;;;;23.50;19.00;;;;;;;13.06;72.60;99892.09;223870;180;138020;-66
2023/05/03 22:47:49;;;;;;;21.60;16.90;;;;;;;13.00;72.72;99896.14;223944;180;137409;-65
2023/05/03 22:52:52;;;;;;;20.40;16.80;;;;;;;12.98;72.90;99890.37;223971;180;145306;-71
2023/05/03 22:57:55;;;;;;;20.90;17.20;;;;;;;13.01;72.85;99887.00;223961;180;138471;-67
2023/05/03 23:02:58;;;;;;;22.10;18.40;;;;;;;13.01;72.80;99885.23;224028;180;136861;-66
2023/05/03 23:08:02;;;;;;;25.20;19.60;;;;;;;12.97;72.84;99879.58;223942;180;145548;-66
2023/05/03 23:13:05;;;;;;;23.50;18.30;;;;;;;12.94;72.70;99876.73;224073;179;139826;-65
2023/05/03 23:18:08;;;;;;;23.20;19.00;;;;;;;12.93;72.84;99874.86;223957;179;136805;-64